Time;durP1;ratioP1;P1;durP2;ratioP2;P2;SDS_P1;SDS_P2;PMS_P1;PMS_P2;Temp;Humidity;BMP_temperature;BMP_pressure;BME280_temperature;BME280_humidity;BME280_pressure;Samples;Min_cycle;Max_cycle;Signal;HPM_P1;HPM_P2
2022/05/01 00:01:11;;;;;;;;;;;3.50;90.00;;;;;;6161587;23;19916;-76
2022/05/01 00:03:39;;;;;;;;;;;3.50;90.20;;;;;;6135635;23;19916;-75
2022/05/01 00:06:06;;;;;;;;;;;3.60;90.00;;;;;;6159992;23;20350;-77
2022/05/01 00:08:33;;;;;;;;;;;3.40;90.10;;;;;;6159844;23;19956;-77
2022/05/01 00:11:00;;;;;;;;;;;3.40;90.10;;;;;;6159858;23;19920;-75
2022/05/01 00:13:26;;;;;;;;;;;3.70;90.30;;;;;;6160153;23;20323;-76
2022/05/01 00:15:52;;;;;;;;;;;3.40;90.30;;;;;;6135084;23;19920;-77
2022/05/01 00:18:18;;;;;;;;;;;3.80;90.30;;;;;;6134855;23;19978;-74
2022/05/01 00:20:44;;;;;;;;;;;3.30;90.00;;;;;;6159743;23;19916;-76
2022/05/01 00:23:10;;;;;;;;;;;3.40;90.20;;;;;;6160069;23;19963;-75
2022/05/01 00:25:37;;;;;;;;;;;3.40;90.10;;;;;;6135291;23;20208;-76
2022/05/01 00:28:02;;;;;;;;;;;3.30;90.10;;;;;;6159895;23;19912;-76
2022/05/01 00:30:28;;;;;;;;;;;3.30;89.90;;;;;;6159735;23;19935;-75
2022/05/01 00:38:25;;;;;;;;;;;3.30;90.10;;;;;;6159828;23;19923;-77
2022/05/01 00:40:51;;;;;;;;;;;3.40;90.10;;;;;;6135006;23;19916;-77
2022/05/01 00:43:16;;;;;;;;;;;3.70;90.10;;;;;;6129757;23;19917;-76
2022/05/01 00:45:42;;;;;;;;;;;3.30;91.00;;;;;;6154384;23;19952;-77
2022/05/01 00:48:07;;;;;;;;;;;3.30;90.80;;;;;;6154945;23;19917;-76
2022/05/01 00:50:33;;;;;;;;;;;3.30;91.10;;;;;;6154895;23;20377;-76
2022/05/01 00:52:59;;;;;;;;;;;3.30;91.00;;;;;;6130091;23;20004;-76
2022/05/01 00:55:25;;;;;;;;;;;3.30;91.20;;;;;;6154473;23;19917;-75
2022/05/01 00:57:51;;;;;;;;;;;3.30;91.00;;;;;;6155096;23;20231;-77
2022/05/01 01:00:18;;;;;;;;;;;3.20;91.00;;;;;;6154711;23;19924;-76
2022/05/01 01:02:45;;;;;;;;;;;3.20;90.70;;;;;;6155120;23;19956;-76
2022/05/01 01:05:11;;;;;;;;;;;3.60;91.80;;;;;;6165937;23;19917;-72
2022/05/01 01:07:37;;;;;;;;;;;3.30;91.30;;;;;;6169923;23;20338;-76
2022/05/01 01:10:03;;;;;;;;;;;3.40;91.10;;;;;;6156843;23;19995;-76
2022/05/01 01:15:13;;;;;;;;;;;3.20;90.90;;;;;;6155739;23;19936;-74
2022/05/01 01:17:43;;;;;;;;;;;3.10;91.10;;;;;;6156738;23;19923;-75
2022/05/01 01:20:11;;;;;;;;;;;3.50;90.90;;;;;;6131523;23;20228;-75
2022/05/01 01:22:40;;;;;;;;;;;3.10;90.90;;;;;;6131884;23;19948;-75
2022/05/01 01:25:10;;;;;;;;;;;3.10;91.40;;;;;;6131674;23;20331;-75
2022/05/01 01:27:39;;;;;;;;;;;3.10;91.10;;;;;;6132030;23;19968;-76
2022/05/01 01:32:50;;;;;;;;;;;3.10;91.20;;;;;;6156343;23;19944;-76
2022/05/01 01:35:21;;;;;;;;;;;3.20;91.30;;;;;;6131632;23;19916;-75
2022/05/01 01:37:49;;;;;;;;;;;2.70;90.10;;;;;;6156588;23;20505;-75
2022/05/01 01:40:18;;;;;;;;;;;2.60;90.30;;;;;;6156062;23;19916;-77
2022/05/01 01:42:46;;;;;;;;;;;2.70;91.00;;;;;;6155942;23;19916;-75
2022/05/01 01:45:12;;;;;;;;;;;2.50;91.00;;;;;;6156138;23;19991;-75
2022/05/01 01:47:38;;;;;;;;;;;2.50;91.30;;;;;;6131431;23;19979;-77
2022/05/01 01:50:04;;;;;;;;;;;2.90;91.00;;;;;;6131432;23;19925;-77
2022/05/01 01:52:30;;;;;;;;;;;2.50;91.20;;;;;;6156032;23;20312;-77
2022/05/01 01:54:55;;;;;;;;;;;2.80;90.90;;;;;;6155934;23;19951;-76
2022/05/01 01:57:21;;;;;;;;;;;2.50;90.80;;;;;;6130939;23;19920;-76
2022/05/01 01:59:46;;;;;;;;;;;2.40;90.60;;;;;;6155971;23;19917;-76
2022/05/01 02:02:12;;;;;;;;;;;2.30;90.80;;;;;;6131584;23;19920;-74
2022/05/01 02:04:38;;;;;;;;;;;2.40;91.00;;;;;;6131555;23;19991;-75
2022/05/01 02:07:03;;;;;;;;;;;2.20;91.10;;;;;;6155940;23;19916;-76
2022/05/01 02:09:30;;;;;;;;;;;2.20;91.10;;;;;;6131669;23;19925;-76
2022/05/01 02:11:57;;;;;;;;;;;2.10;91.10;;;;;;6165596;23;19932;-72
2022/05/01 02:14:23;;;;;;;;;;;2.30;91.20;;;;;;6144683;23;20261;-76
2022/05/01 02:16:49;;;;;;;;;;;2.30;91.10;;;;;;6131137;23;19935;-75
2022/05/01 02:19:14;;;;;;;;;;;2.70;90.90;;;;;;6131367;23;19968;-75
2022/05/01 02:21:40;;;;;;;;;;;2.20;91.00;;;;;;6155913;23;19917;-75
2022/05/01 02:24:07;;;;;;;;;;;2.70;91.10;;;;;;6155602;23;19917;-75
2022/05/01 02:26:32;;;;;;;;;;;2.20;90.80;;;;;;6155829;23;19940;-76
2022/05/01 02:29:02;;;;;;;;;;;2.20;90.90;;;;;;6131037;23;19917;-76
2022/05/01 02:31:28;;;;;;;;;;;2.20;90.80;;;;;;6131203;23;19923;-77
2022/05/01 02:33:53;;;;;;;;;;;2.20;90.80;;;;;;6155837;23;19955;-75
2022/05/01 02:36:19;;;;;;;;;;;2.20;90.60;;;;;;6130538;23;19921;-76
2022/05/01 02:38:47;;;;;;;;;;;2.20;90.60;;;;;;6155516;23;19968;-77
2022/05/01 02:41:13;;;;;;;;;;;2.20;90.70;;;;;;6132530;23;19917;-74
2022/05/01 02:43:39;;;;;;;;;;;2.70;90.90;;;;;;6160293;23;19917;-75
2022/05/01 02:46:04;;;;;;;;;;;3.00;91.00;;;;;;6135410;23;19991;-77
2022/05/01 02:48:30;;;;;;;;;;;2.30;90.90;;;;;;6185435;23;19916;-75
2022/05/01 02:50:56;;;;;;;;;;;2.30;91.00;;;;;;6135895;23;19995;-75
2022/05/01 02:53:21;;;;;;;;;;;2.80;91.10;;;;;;6136048;23;19955;-76
2022/05/01 02:55:47;;;;;;;;;;;2.20;91.10;;;;;;6135385;23;19916;-76
2022/05/01 02:58:13;;;;;;;;;;;2.20;90.70;;;;;;6159986;23;19971;-78
2022/05/01 03:00:38;;;;;;;;;;;2.10;90.80;;;;;;6160303;23;19995;-76
2022/05/01 03:03:04;;;;;;;;;;;2.10;90.90;;;;;;6135530;23;19927;-75
2022/05/01 03:05:30;;;;;;;;;;;2.10;90.90;;;;;;6159821;23;19912;-75
2022/05/01 03:07:56;;;;;;;;;;;2.10;90.90;;;;;;6135713;23;19913;-75
2022/05/01 03:10:22;;;;;;;;;;;2.50;91.00;;;;;;6135617;23;19917;-76
2022/05/01 03:12:47;;;;;;;;;;;2.10;90.90;;;;;;6135425;23;19913;-74
2022/05/01 03:15:13;;;;;;;;;;;2.10;91.10;;;;;;6159998;23;20238;-76
2022/05/01 03:23:07;;;;;;;;;;;2.10;91.10;;;;;;6160429;23;19990;-76
2022/05/01 03:25:33;;;;;;;;;;;2.20;90.90;;;;;;6160478;23;19955;-77
2022/05/01 03:27:59;;;;;;;;;;;2.10;91.00;;;;;;6151147;23;19927;-76
2022/05/01 03:30:24;;;;;;;;;;;2.20;90.90;;;;;;6163982;23;19905;-76
2022/05/01 03:32:53;;;;;;;;;;;2.30;91.00;;;;;;6186114;23;19911;-75
2022/05/01 03:35:19;;;;;;;;;;;2.10;90.80;;;;;;6159522;23;19972;-76
2022/05/01 03:37:45;;;;;;;;;;;2.50;90.70;;;;;;6135525;23;19927;-75
2022/05/01 03:40:12;;;;;;;;;;;2.60;91.00;;;;;;6135285;23;20006;-76
2022/05/01 03:42:37;;;;;;;;;;;2.00;90.60;;;;;;6135068;23;20268;-76
2022/05/01 03:45:03;;;;;;;;;;;2.00;90.70;;;;;;6159427;23;19979;-75
2022/05/01 03:47:29;;;;;;;;;;;2.00;90.90;;;;;;6135712;23;19920;-76
2022/05/01 03:49:54;;;;;;;;;;;2.00;90.70;;;;;;6159866;23;19913;-76
2022/05/01 03:52:23;;;;;;;;;;;2.00;90.90;;;;;;6159814;23;19920;-75
2022/05/01 03:54:48;;;;;;;;;;;2.30;91.30;;;;;;6134779;23;19912;-75
2022/05/01 03:57:14;;;;;;;;;;;1.90;91.30;;;;;;6160137;23;19950;-76
2022/05/01 03:59:39;;;;;;;;;;;1.90;91.20;;;;;;6135273;23;19916;-76
2022/05/01 04:02:05;;;;;;;;;;;1.90;91.40;;;;;;6135280;23;20342;-76
2022/05/01 04:04:30;;;;;;;;;;;1.90;91.20;;;;;;6134792;23;19916;-75
2022/05/01 04:06:57;;;;;;;;;;;2.20;91.30;;;;;;6159750;23;19919;-75
2022/05/01 04:09:24;;;;;;;;;;;1.80;90.90;;;;;;6135594;23;19935;-77
2022/05/01 04:11:50;;;;;;;;;;;1.80;90.90;;;;;;6135105;23;19912;-77
2022/05/01 04:14:18;;;;;;;;;;;1.80;90.90;;;;;;6134675;23;19912;-75
2022/05/01 04:16:44;;;;;;;;;;;1.80;90.80;;;;;;6135134;23;19912;-75
2022/05/01 04:19:11;;;;;;;;;;;2.20;90.90;;;;;;6160082;23;19923;-79
2022/05/01 04:21:37;;;;;;;;;;;1.90;90.80;;;;;;6159756;23;19919;-76
2022/05/01 04:24:18;;;;;;;;;;;1.90;91.00;;;;;;6162040;23;19916;-77
2022/05/01 04:26:43;;;;;;;;;;;1.90;90.80;;;;;;6172994;23;19905;-73
2022/05/01 04:31:56;;;;;;;;;;;1.80;90.80;;;;;;6160141;23;19916;-77
2022/05/01 04:34:22;;;;;;;;;;;2.00;90.80;;;;;;6159277;23;19935;-77
2022/05/01 04:36:48;;;;;;;;;;;2.00;91.10;;;;;;6135223;23;20004;-78
2022/05/01 04:39:13;;;;;;;;;;;2.00;91.00;;;;;;6136247;23;19939;-79
2022/05/01 04:41:39;;;;;;;;;;;2.30;91.30;;;;;;6156228;23;19925;-79
2022/05/01 04:44:05;;;;;;;;;;;2.40;91.60;;;;;;6132466;23;19913;-79
2022/05/01 04:46:30;;;;;;;;;;;2.60;91.50;;;;;;6156651;23;19979;-79
2022/05/01 04:48:56;;;;;;;;;;;2.20;91.50;;;;;;6131510;23;19912;-80
2022/05/01 04:51:22;;;;;;;;;;;2.30;91.70;;;;;;6155992;23;19916;-79
2022/05/01 04:53:47;;;;;;;;;;;2.90;91.60;;;;;;6155316;23;19920;-78
2022/05/01 04:58:57;;;;;;;;;;;2.90;91.00;;;;;;6155836;23;19917;-79
2022/05/01 05:01:23;;;;;;;;;;;2.50;91.10;;;;;;6130965;23;19919;-78
2022/05/01 05:03:49;;;;;;;;;;;3.30;91.10;;;;;;6130771;23;20336;-79
2022/05/01 05:06:15;;;;;;;;;;;3.20;91.40;;;;;;6131891;23;19912;-79
2022/05/01 05:11:25;;;;;;;;;;;3.20;91.10;;;;;;6156354;23;19913;-81
2022/05/01 05:13:52;;;;;;;;;;;3.00;90.90;;;;;;6156250;23;19987;-79
2022/05/01 05:16:18;;;;;;;;;;;2.80;90.90;;;;;;6156637;23;19913;-79
2022/05/01 05:18:44;;;;;;;;;;;3.30;91.10;;;;;;6132030;23;19987;-79
2022/05/01 05:21:09;;;;;;;;;;;2.80;91.30;;;;;;6156377;23;19917;-79
2022/05/01 05:23:35;;;;;;;;;;;3.20;91.30;;;;;;6156010;23;19975;-79
2022/05/01 05:26:01;;;;;;;;;;;3.80;90.70;;;;;;6156242;23;19912;-78
2022/05/01 05:28:26;;;;;;;;;;;3.80;90.70;;;;;;6132053;23;20367;-79
2022/05/01 05:30:52;;;;;;;;;;;4.30;90.90;;;;;;6155964;23;19913;-79
2022/05/01 05:33:18;;;;;;;;;;;4.00;90.80;;;;;;6142031;23;20228;-77
2022/05/01 05:35:44;;;;;;;;;;;4.20;90.70;;;;;;6149537;23;19925;-74
2022/05/01 05:38:09;;;;;;;;;;;4.40;90.40;;;;;;6157375;23;19924;-76
2022/05/01 05:40:35;;;;;;;;;;;4.60;89.70;;;;;;6139743;23;19913;-79
2022/05/01 05:43:01;;;;;;;;;;;4.70;89.10;;;;;;6132691;23;19978;-79
2022/05/01 05:45:26;;;;;;;;;;;4.80;89.20;;;;;;6132076;23;19919;-78
2022/05/01 05:47:52;;;;;;;;;;;4.90;88.50;;;;;;6133157;23;19991;-78
2022/05/01 05:50:18;;;;;;;;;;;5.50;88.70;;;;;;6132084;23;19920;-79
2022/05/01 05:52:44;;;;;;;;;;;5.50;88.90;;;;;;6132024;23;19912;-78
2022/05/01 05:55:09;;;;;;;;;;;5.30;89.20;;;;;;6131284;23;19919;-78
2022/05/01 05:57:35;;;;;;;;;;;5.30;89.30;;;;;;6131398;23;19912;-80
2022/05/01 06:00:01;;;;;;;;;;;5.50;88.80;;;;;;6131525;23;19917;-79
2022/05/01 06:02:26;;;;;;;;;;;5.50;88.90;;;;;;6131139;23;19967;-79
2022/05/01 06:04:52;;;;;;;;;;;5.50;89.20;;;;;;6155716;23;19912;-79
2022/05/01 06:07:17;;;;;;;;;;;5.80;89.20;;;;;;6131805;23;20253;-78
2022/05/01 06:09:43;;;;;;;;;;;5.60;90.00;;;;;;6156306;23;19964;-79
2022/05/01 06:12:09;;;;;;;;;;;5.70;89.60;;;;;;6131094;23;20303;-80
2022/05/01 06:14:35;;;;;;;;;;;5.80;90.10;;;;;;6155847;23;19945;-79
2022/05/01 06:17:01;;;;;;;;;;;5.80;89.90;;;;;;6131515;23;20208;-77
2022/05/01 06:19:26;;;;;;;;;;;6.30;89.80;;;;;;6155887;23;19966;-79
2022/05/01 06:21:52;;;;;;;;;;;6.50;89.60;;;;;;6130814;23;19920;-79
2022/05/01 06:24:17;;;;;;;;;;;7.00;89.90;;;;;;6155158;23;19913;-78
2022/05/01 06:26:43;;;;;;;;;;;6.90;90.30;;;;;;6131401;23;20347;-78
2022/05/01 06:29:09;;;;;;;;;;;7.30;88.00;;;;;;6130839;23;19954;-78
2022/05/01 06:31:38;;;;;;;;;;;7.60;89.40;;;;;;6131036;23;19912;-80
2022/05/01 06:34:04;;;;;;;;;;;7.90;88.20;;;;;;6130563;23;19913;-78
2022/05/01 06:36:29;;;;;;;;;;;8.20;87.60;;;;;;6131037;23;19919;-79
2022/05/01 06:38:55;;;;;;;;;;;8.40;85.70;;;;;;6131033;23;19916;-78
2022/05/01 06:41:21;;;;;;;;;;;8.50;84.90;;;;;;6158725;23;19923;-79
2022/05/01 06:43:46;;;;;;;;;;;8.70;84.60;;;;;;6135150;23;19991;-78
2022/05/01 06:46:13;;;;;;;;;;;8.80;84.60;;;;;;6136699;23;19912;-78
2022/05/01 06:48:38;;;;;;;;;;;9.00;83.20;;;;;;6164352;23;19936;-74
2022/05/01 06:51:04;;;;;;;;;;;9.00;82.70;;;;;;6184113;23;19916;-74
2022/05/01 06:53:30;;;;;;;;;;;9.20;82.20;;;;;;6170749;23;19913;-79
2022/05/01 06:55:56;;;;;;;;;;;9.00;82.10;;;;;;6135489;23;19912;-78
2022/05/01 06:58:25;;;;;;;;;;;9.10;82.00;;;;;;6136490;23;19919;-79
2022/05/01 07:00:52;;;;;;;;;;;9.10;82.20;;;;;;6136316;23;19912;-78
2022/05/01 07:03:19;;;;;;;;;;;9.20;81.70;;;;;;6136822;23;19916;-79
2022/05/01 07:05:44;;;;;;;;;;;9.40;81.80;;;;;;6186756;23;19944;-79
2022/05/01 07:08:10;;;;;;;;;;;9.20;81.20;;;;;;6164081;23;19908;-78
2022/05/01 07:10:36;;;;;;;;;;;9.70;81.10;;;;;;6183138;23;19916;-79
2022/05/01 07:13:01;;;;;;;;;;;9.70;79.50;;;;;;6135282;23;20197;-80
2022/05/01 07:15:27;;;;;;;;;;;9.70;78.50;;;;;;6136082;23;20315;-79
2022/05/01 07:17:53;;;;;;;;;;;10.00;79.80;;;;;;6136086;23;20323;-78
2022/05/01 07:20:18;;;;;;;;;;;10.10;78.30;;;;;;6160024;23;20334;-78
2022/05/01 07:22:44;;;;;;;;;;;10.40;76.90;;;;;;6135143;23;20319;-79
2022/05/01 07:25:10;;;;;;;;;;;10.70;76.20;;;;;;6135564;23;19916;-78
2022/05/01 07:27:35;;;;;;;;;;;10.90;73.50;;;;;;6135546;23;19912;-79
2022/05/01 07:30:03;;;;;;;;;;;11.00;72.60;;;;;;6135511;23;19983;-79
2022/05/01 07:32:29;;;;;;;;;;;11.10;72.90;;;;;;6134848;23;20250;-78
2022/05/01 07:34:56;;;;;;;;;;;10.90;69.50;;;;;;6134883;23;19912;-79
2022/05/01 07:37:24;;;;;;;;;;;11.10;68.90;;;;;;6135341;23;19916;-78
2022/05/01 07:39:50;;;;;;;;;;;11.40;68.70;;;;;;6159846;23;19964;-79
2022/05/01 07:42:18;;;;;;;;;;;11.40;70.60;;;;;;6134849;23;19991;-79
2022/05/01 07:44:44;;;;;;;;;;;11.70;69.00;;;;;;6135337;23;19919;-80
2022/05/01 07:47:12;;;;;;;;;;;12.10;68.10;;;;;;6161084;23;20211;-80
2022/05/01 07:49:38;;;;;;;;;;;12.10;68.00;;;;;;6135520;23;19919;-80
2022/05/01 07:52:04;;;;;;;;;;;11.80;65.30;;;;;;6135566;23;20230;-79
2022/05/01 07:54:30;;;;;;;;;;;11.80;66.00;;;;;;6135471;23;19912;-78
2022/05/01 07:57:26;;;;;;;;;;;12.00;66.70;;;;;;6159991;23;20207;-81
2022/05/01 08:00:01;;;;;;;;;;;11.80;64.20;;;;;;6157174;23;20383;-82
2022/05/01 08:05:30;;;;;;;;;;;11.70;65.40;;;;;;6156592;23;19912;-80
2022/05/01 08:08:19;;;;;;;;;;;11.90;63.30;;;;;;6135737;23;19950;-84
2022/05/01 08:10:44;;;;;;;;;;;11.90;62.50;;;;;;6160021;23;20271;-84
2022/05/01 08:13:10;;;;;;;;;;;12.10;62.70;;;;;;6134926;23;19912;-81
2022/05/01 08:15:36;;;;;;;;;;;12.20;62.60;;;;;;6135633;23;20338;-84
2022/05/01 08:23:33;;;;;;;;;;;12.70;59.60;;;;;;6173087;23;19922;-86
2022/05/01 08:26:03;;;;;;;;;;;13.30;59.40;;;;;;6156952;23;19954;-81
2022/05/01 08:28:36;;;;;;;;;;;13.50;59.90;;;;;;6187453;23;19928;-81
2022/05/01 08:31:05;;;;;;;;;;;14.10;57.90;;;;;;6137603;23;19920;-83
2022/05/01 08:33:42;;;;;;;;;;;14.00;57.00;;;;;;6135390;23;19919;-84
2022/05/01 08:36:34;;;;;;;;;;;;;;;;;;;;;
2022/05/01 08:39:02;;;;;;;;;;;14.20;56.30;;;;;;6159065;23;19916;-85
2022/05/01 08:41:35;;;;;;;;;;;14.60;55.30;;;;;;6134981;23;19939;-84
2022/05/01 08:44:01;;;;;;;;;;;14.50;53.70;;;;;;6135558;23;19912;-83
2022/05/01 08:46:38;;;;;;;;;;;14.60;54.60;;;;;;6159681;23;19944;-79
2022/05/01 08:49:08;;;;;;;;;;;15.00;53.30;;;;;;6135329;23;20035;-83
2022/05/01 08:51:49;;;;;;;;;;;14.90;51.70;;;;;;6134897;23;19916;-80
2022/05/01 08:54:18;;;;;;;;;;;15.00;53.30;;;;;;6134323;23;19912;-80
2022/05/01 08:56:48;;;;;;;;;;;15.00;52.90;;;;;;6135532;23;19951;-80
2022/05/01 08:59:32;;;;;;;;;;;15.10;51.70;;;;;;6135733;23;19916;-82
2022/05/01 09:02:04;;;;;;;;;;;14.60;52.80;;;;;;6131582;23;19979;-81
2022/05/01 09:04:30;;;;;;;;;;;14.60;53.50;;;;;;6135077;23;19912;-79
2022/05/01 09:06:56;;;;;;;;;;;14.40;53.70;;;;;;6134984;23;19988;-75
2022/05/01 09:09:22;;;;;;;;;;;14.20;54.20;;;;;;6135041;23;19916;-78
2022/05/01 09:14:33;;;;;;;;;;;13.80;54.30;;;;;;6159565;23;19913;-76
2022/05/01 09:17:09;;;;;;;;;;;13.70;53.90;;;;;;6159809;23;19927;-75
2022/05/01 09:19:35;;;;;;;;;;;13.50;53.60;;;;;;6159128;23;19916;-75
2022/05/01 09:22:01;;;;;;;;;;;13.40;53.60;;;;;;6158871;23;19923;-76
2022/05/01 09:24:27;;;;;;;;;;;13.30;55.10;;;;;;6135057;23;19916;-77
2022/05/01 09:26:53;;;;;;;;;;;13.40;54.50;;;;;;6161190;23;20371;-81
2022/05/01 09:29:22;;;;;;;;;;;13.40;53.50;;;;;;6137271;23;19927;-82
2022/05/01 09:31:50;;;;;;;;;;;13.20;54.20;;;;;;6136339;23;19950;-81
2022/05/01 09:34:19;;;;;;;;;;;13.20;55.00;;;;;;6135906;23;19954;-82
2022/05/01 09:36:46;;;;;;;;;;;13.50;54.40;;;;;;6137593;23;19912;-81
2022/05/01 09:39:22;;;;;;;;;;;13.50;55.60;;;;;;6137612;23;19912;-81
2022/05/01 09:41:48;;;;;;;;;;;13.50;55.80;;;;;;6144718;23;19963;-80
2022/05/01 09:44:17;;;;;;;;;;;13.60;54.50;;;;;;6160943;23;19904;-80
2022/05/01 09:46:43;;;;;;;;;;;13.50;55.80;;;;;;6165214;23;19908;-81
2022/05/01 09:49:13;;;;;;;;;;;13.50;56.50;;;;;;6164556;23;19908;-81
2022/05/01 09:51:48;;;;;;;;;;;13.50;57.10;;;;;;6148693;23;19958;-81
2022/05/01 09:54:18;;;;;;;;;;;13.50;57.60;;;;;;6137499;23;20234;-81
2022/05/01 09:56:51;;;;;;;;;;;13.50;56.70;;;;;;6137255;23;19986;-81
2022/05/01 09:59:20;;;;;;;;;;;13.60;56.00;;;;;;6136773;23;19999;-81
2022/05/01 10:02:03;;;;;;;;;;;13.60;56.10;;;;;;6162101;23;19913;-82
2022/05/01 10:04:30;;;;;;;;;;;13.60;55.40;;;;;;6136662;23;20315;-81
2022/05/01 10:06:56;;;;;;;;;;;13.70;55.70;;;;;;6161119;23;20402;-81
2022/05/01 10:09:23;;;;;;;;;;;14.10;57.50;;;;;;6136672;23;20235;-81
2022/05/01 10:11:53;;;;;;;;;;;14.60;54.20;;;;;;6160296;23;19987;-80
2022/05/01 10:14:22;;;;;;;;;;;14.90;53.60;;;;;;6136071;23;19913;-81
2022/05/01 10:16:48;;;;;;;;;;;15.30;52.90;;;;;;6135948;23;19938;-81
2022/05/01 10:19:17;;;;;;;;;;;15.60;52.00;;;;;;6136296;23;20307;-82
2022/05/01 10:22:06;;;;;;;;;;;15.50;50.80;;;;;;6135872;23;19913;-82
2022/05/01 10:24:34;;;;;;;;;;;15.10;49.40;;;;;;6136678;23;20393;-81
2022/05/01 10:27:20;;;;;;;;;;;14.90;50.30;;;;;;6135475;23;19919;-81
2022/05/01 10:33:02;;;;;;;;;;;15.20;49.70;;;;;;6160144;23;20113;-81
2022/05/01 10:35:31;;;;;;;;;;;15.10;48.70;;;;;;6136806;23;19975;-81
2022/05/01 10:38:21;;;;;;;;;;;14.90;51.60;;;;;;6160965;23;20002;-82
2022/05/01 10:41:05;;;;;;;;;;;15.00;50.80;;;;;;6138110;23;19970;-81
2022/05/01 10:43:37;;;;;;;;;;;15.00;52.30;;;;;;6135924;23;19916;-82
2022/05/01 10:46:12;;;;;;;;;;;15.10;52.00;;;;;;6136611;23;19919;-81
2022/05/01 10:48:49;;;;;;;;;;;15.30;52.20;;;;;;6137503;23;20242;-82
2022/05/01 10:51:27;;;;;;;;;;;15.20;50.40;;;;;;6112586;23;20270;-82
2022/05/01 10:54:15;;;;;;;;;;;15.30;50.40;;;;;;6160412;23;20227;-81
2022/05/01 10:56:44;;;;;;;;;;;15.60;49.20;;;;;;6135909;23;20393;-81
2022/05/01 10:59:35;;;;;;;;;;;16.00;50.30;;;;;;6136648;23;19971;-81
2022/05/01 11:02:17;;;;;;;;;;;16.20;50.70;;;;;;6135753;23;19918;-81
2022/05/01 11:04:42;;;;;;;;;;;16.10;48.90;;;;;;6135937;23;19913;-81
2022/05/01 11:07:13;;;;;;;;;;;16.30;48.10;;;;;;6145752;23;20004;-82
2022/05/01 11:09:45;;;;;;;;;;;16.40;47.90;;;;;;6149665;23;19927;-78
2022/05/01 11:12:15;;;;;;;;;;;16.50;48.70;;;;;;6159288;23;19955;-73
2022/05/01 11:14:55;;;;;;;;;;;16.60;48.30;;;;;;6154773;23;19916;-84
2022/05/01 11:17:42;;;;;;;;;;;16.70;48.40;;;;;;6135845;23;20002;-81
2022/05/01 11:23:55;;;;;;;;;;;;;;;;;;;;;
2022/05/01 11:26:36;;;;;;;;;;;16.30;47.90;;;;;;6160082;23;19970;-80
2022/05/01 11:29:09;;;;;;;;;;;16.30;47.20;;;;;;6124790;23;19944;-78
2022/05/01 11:31:37;;;;;;;;;;;16.30;46.30;;;;;;6076315;23;19913;-76
2022/05/01 11:34:32;;;;;;;;;;;16.50;47.70;;;;;;6134577;23;19913;-79
2022/05/01 11:37:20;;;;;;;;;;;16.90;47.10;;;;;;6127103;23;20320;-78
2022/05/01 11:40:08;;;;;;;;;;;17.00;47.80;;;;;;6034979;23;19918;-80
2022/05/01 11:42:36;;;;;;;;;;;17.10;46.60;;;;;;6040418;23;19921;-75
2022/05/01 11:45:19;;;;;;;;;;;17.20;46.80;;;;;;6018724;23;19936;-78
2022/05/01 11:47:48;;;;;;;;;;;17.30;45.60;;;;;;6043356;23;19984;-78
2022/05/01 11:50:18;;;;;;;;;;;16.60;44.70;;;;;;6042244;23;20264;-79
2022/05/01 11:52:49;;;;;;;;;;;16.70;45.90;;;;;;6017755;23;19920;-78
2022/05/01 13:21:00;;;;;;;;;;;16.90;44.50;;;;;;6156716;23;20231;-77
2022/05/01 13:30:19;;;;;;;;;;;16.00;49.30;;;;;;6132174;23;19913;-80
2022/05/01 13:36:14;;;;;;;;;;;15.90;51.50;;;;;;6103274;23;19961;-76
2022/05/01 13:38:40;;;;;;;;;;;15.50;51.60;;;;;;6106950;23;19949;-77
2022/05/01 13:51:16;;;;;;;;;;;14.60;54.30;;;;;;6044016;23;19914;-80
2022/05/01 13:54:56;;;;;;;;;;;14.70;55.60;;;;;;6044379;23;19914;-81
2022/05/01 13:57:48;;;;;;;;;;;14.70;54.80;;;;;;5964480;24;19955;-80
2022/05/01 14:03:58;;;;;;;;;;;15.00;55.40;;;;;;5926332;24;20001;-80
2022/05/01 16:43:56;;;;;;;;;;;13.30;60.10;;;;;;6179413;23;19920;-77
2022/05/01 16:46:50;;;;;;;;;;;13.10;61.80;;;;;;6158592;23;19916;-75
2022/05/01 16:49:20;;;;;;;;;;;12.80;62.40;;;;;;6159738;23;19967;-79
2022/05/01 16:51:46;;;;;;;;;;;12.70;62.10;;;;;;6131130;23;20312;-73
2022/05/01 16:54:18;;;;;;;;;;;12.60;62.20;;;;;;6134675;23;19944;-79
2022/05/01 16:56:52;;;;;;;;;;;12.60;63.10;;;;;;6159607;23;19951;-84
2022/05/01 16:59:32;;;;;;;;;;;12.40;64.00;;;;;;6160136;23;20275;-77
2022/05/01 17:02:13;;;;;;;;;;;12.40;64.40;;;;;;6159202;23;20080;-77
2022/05/01 17:05:03;;;;;;;;;;;12.30;64.30;;;;;;6135259;23;19912;-78
2022/05/01 17:08:01;;;;;;;;;;;12.30;63.80;;;;;;6159518;23;20311;-78
2022/05/01 17:10:51;;;;;;;;;;;12.30;64.90;;;;;;6127039;23;19944;-79
2022/05/01 17:13:53;;;;;;;;;;;12.10;65.60;;;;;;6159101;23;20452;-78
2022/05/01 17:16:46;;;;;;;;;;;12.00;64.70;;;;;;6136243;23;20342;-75
2022/05/01 17:19:33;;;;;;;;;;;;;;;;;;;;;
2022/05/01 17:22:03;;;;;;;;;;;11.80;66.30;;;;;;6171560;22;19911;-79
2022/05/01 17:24:32;;;;;;;;;;;11.70;66.90;;;;;;6195333;23;20380;-79
2022/05/01 17:27:01;;;;;;;;;;;11.60;66.10;;;;;;6195782;23;20330;-75
2022/05/01 17:29:36;;;;;;;;;;;11.60;67.20;;;;;;6195851;23;19911;-75
2022/05/01 17:32:25;;;;;;;;;;;11.50;67.10;;;;;;6196274;22;19919;-75
2022/05/01 17:35:38;;;;;;;;;;;;;;;;;;;;;
2022/05/01 17:41:30;;;;;;;;;;;11.30;68.10;;;;;;6220582;23;19931;-82
2022/05/01 17:43:57;;;;;;;;;;;11.30;67.60;;;;;;6194845;23;19919;-73
2022/05/01 17:46:23;;;;;;;;;;;11.10;68.20;;;;;;6194524;23;19963;-71
2022/05/01 17:49:02;;;;;;;;;;;11.10;69.10;;;;;;6195837;23;20314;-76
2022/05/01 17:51:27;;;;;;;;;;;11.00;68.60;;;;;;6195729;23;20272;-74
2022/05/01 17:53:54;;;;;;;;;;;11.00;68.70;;;;;;6195284;23;19935;-75
2022/05/01 17:56:23;;;;;;;;;;;10.80;69.40;;;;;;6194956;23;20372;-76
2022/05/01 17:58:49;;;;;;;;;;;10.70;69.50;;;;;;6195089;23;19912;-74
2022/05/01 18:01:33;;;;;;;;;;;10.60;69.60;;;;;;6195335;23;19915;-74
2022/05/01 18:12:18;;;;;;;;;;;10.40;70.40;;;;;;6223937;23;19918;-72
2022/05/01 18:15:06;;;;;;;;;;;10.30;71.60;;;;;;6194688;23;19915;-75
2022/05/01 18:21:16;;;;;;;;;;;10.20;72.40;;;;;;6094989;23;20252;-75
2022/05/01 18:31:03;;;;;;;;;;;9.90;73.70;;;;;;5963554;23;19958;-76
2022/05/01 18:36:54;;;;;;;;;;;9.70;74.80;;;;;;6013419;23;19961;-76
2022/05/01 18:43:18;;;;;;;;;;;9.60;75.30;;;;;;6025064;23;19914;-76
2022/05/01 18:46:00;;;;;;;;;;;9.30;75.30;;;;;;6123144;23;19932;-76
2022/05/01 18:48:27;;;;;;;;;;;9.40;76.30;;;;;;6130413;23;20327;-77
2022/05/01 18:54:26;;;;;;;;;;;9.20;76.20;;;;;;6194521;23;19935;-76
2022/05/01 19:00:36;;;;;;;;;;;9.10;77.30;;;;;;6037649;23;20322;-76
2022/05/01 19:03:33;;;;;;;;;;;8.70;77.40;;;;;;6095546;23;19914;-76
2022/05/01 19:06:33;;;;;;;;;;;8.70;77.00;;;;;;6213938;23;19911;-74
2022/05/01 19:09:29;;;;;;;;;;;8.60;77.90;;;;;;6192690;23;19911;-75
2022/05/01 19:12:07;;;;;;;;;;;8.40;78.00;;;;;;6196684;22;19918;-74
2022/05/01 19:17:28;;;;;;;;;;;8.50;77.70;;;;;;6231944;23;19939;-73
2022/05/01 19:20:00;;;;;;;;;;;8.50;77.60;;;;;;6217758;23;19920;-72
2022/05/01 19:23:03;;;;;;;;;;;8.70;77.70;;;;;;6220380;23;19921;-75
2022/05/01 19:31:43;;;;;;;;;;;8.40;77.70;;;;;;6251767;23;19910;-77
2022/05/01 19:54:56;;;;;;;;;;;7.50;80.10;;;;;;6215160;23;19923;-78
2022/05/01 19:57:50;;;;;;;;;;;7.30;80.40;;;;;;6045275;23;19921;-79
2022/05/01 20:01:22;;;;;;;;;;;7.20;79.10;;;;;;6198313;23;19920;-79
2022/05/01 20:04:09;;;;;;;;;;;7.20;77.90;;;;;;6070402;23;19937;-77
2022/05/01 20:06:37;;;;;;;;;;;7.10;80.20;;;;;;6194848;23;19965;-77
2022/05/01 20:09:08;;;;;;;;;;;7.00;80.30;;;;;;6194326;23;19916;-80
2022/05/01 20:11:37;;;;;;;;;;;6.90;81.10;;;;;;6219086;23;20350;-79
2022/05/01 20:14:19;;;;;;;;;;;;;;;;;;;;;
2022/05/01 20:16:48;;;;;;;;;;;6.80;80.60;;;;;;6219081;23;19965;-77
2022/05/01 20:19:28;;;;;;;;;;;6.80;80.50;;;;;;6194324;23;19919;-77
2022/05/01 20:22:24;;;;;;;;;;;6.70;79.20;;;;;;6194275;23;19958;-79
2022/05/01 20:28:38;;;;;;;;;;;6.60;81.90;;;;;;6252320;22;19916;-78
2022/05/01 20:37:10;;;;;;;;;;;6.30;82.80;;;;;;6182171;23;19916;-71
